createdAt,value
2018-05-19T00:01:16.228Z,12.20
2018-05-19T00:03:43.748Z,12.10
2018-05-19T00:06:11.250Z,12.20
2018-05-19T00:08:39.517Z,12.20
2018-05-19T00:11:07.073Z,12.20
2018-05-19T00:13:34.601Z,12.10
2018-05-19T00:16:02.211Z,12.00
2018-05-19T00:18:30.470Z,11.90
2018-05-19T00:20:58.858Z,12.00
2018-05-19T00:23:27.097Z,11.90
2018-05-19T00:25:55.811Z,11.90
2018-05-19T00:28:24.059Z,11.90
2018-05-19T00:30:51.705Z,11.90
2018-05-19T00:33:19.230Z,11.80
2018-05-19T00:35:47.549Z,11.70
2018-05-19T00:38:15.501Z,11.70
2018-05-19T00:40:42.985Z,11.90
2018-05-19T00:43:10.479Z,11.70
2018-05-19T00:45:39.882Z,11.90
2018-05-19T00:48:07.435Z,11.90
2018-05-19T00:50:36.035Z,11.90
2018-05-19T00:53:03.625Z,11.80
2018-05-19T00:55:31.212Z,11.80
2018-05-19T00:57:58.876Z,11.70
2018-05-19T01:00:27.919Z,11.80
2018-05-19T01:02:55.685Z,11.80
2018-05-19T01:05:23.175Z,11.90
2018-05-19T01:07:50.790Z,11.80
2018-05-19T01:10:19.067Z,11.90
2018-05-19T01:12:48.125Z,11.90
2018-05-19T01:15:15.690Z,11.80
2018-05-19T01:17:43.671Z,11.90
2018-05-19T01:20:12.914Z,11.70
2018-05-19T01:22:40.708Z,11.70
2018-05-19T01:25:08.216Z,11.60
2018-05-19T01:27:35.715Z,11.60
2018-05-19T01:30:03.192Z,11.60
2018-05-19T01:32:30.725Z,11.60
2018-05-19T01:34:58.221Z,11.60
2018-05-19T01:37:26.570Z,11.60
2018-05-19T01:39:54.057Z,11.60
2018-05-19T01:42:21.524Z,11.60
2018-05-19T01:44:49.815Z,11.50
2018-05-19T01:47:17.424Z,11.50
2018-05-19T01:49:44.936Z,11.30
2018-05-19T01:52:12.515Z,11.20
2018-05-19T01:54:40.033Z,11.30
2018-05-19T01:57:08.294Z,11.30
2018-05-19T01:59:35.782Z,11.30
2018-05-19T02:02:04.047Z,11.20
2018-05-19T02:04:32.347Z,11.20
2018-05-19T02:06:59.821Z,11.10
2018-05-19T02:09:27.554Z,11.10
2018-05-19T02:11:55.042Z,11.10
2018-05-19T02:14:22.531Z,11.10
2018-05-19T02:16:50.097Z,11.20
2018-05-19T02:19:18.340Z,11.20
2018-05-19T02:21:45.828Z,11.20
2018-05-19T02:24:13.295Z,11.20
2018-05-19T02:26:41.556Z,11.20
2018-05-19T02:29:09.043Z,11.10
2018-05-19T02:31:37.307Z,11.20
2018-05-19T02:34:04.780Z,11.10
2018-05-19T02:36:33.048Z,11.20
2018-05-19T02:39:01.297Z,11.20
2018-05-19T02:41:28.776Z,11.10
2018-05-19T02:43:57.028Z,11.20
2018-05-19T02:46:24.519Z,11.20
2018-05-19T02:48:53.046Z,11.10
2018-05-19T02:51:20.517Z,11.10
2018-05-19T02:53:47.999Z,11.10
2018-05-19T02:56:16.274Z,11.10
2018-05-19T02:58:43.724Z,11.10
2018-05-19T03:01:11.192Z,11.10
2018-05-19T03:03:38.677Z,11.10
2018-05-19T03:06:06.920Z,10.90
2018-05-19T03:08:34.393Z,10.90
2018-05-19T03:11:01.907Z,10.90
2018-05-19T03:13:29.399Z,10.70
2018-05-19T03:15:56.893Z,10.70
2018-05-19T03:18:24.366Z,10.70
2018-05-19T03:20:51.845Z,10.80
2018-05-19T03:23:19.328Z,10.80
2018-05-19T03:25:46.785Z,10.80
2018-05-19T03:28:15.047Z,11.00
2018-05-19T03:30:42.523Z,11.00
2018-05-19T03:33:10.767Z,10.90
2018-05-19T03:35:38.244Z,10.90
2018-05-19T03:38:05.710Z,11.00
2018-05-19T03:40:33.971Z,11.00
2018-05-19T03:43:01.436Z,11.00
2018-05-19T03:45:29.685Z,11.10
2018-05-19T03:47:57.151Z,11.00
2018-05-19T03:50:24.649Z,11.10
2018-05-19T03:52:52.920Z,11.10
2018-05-19T03:55:21.178Z,11.10
2018-05-19T03:58:01.125Z,11.10
2018-05-19T04:00:41.327Z,11.20
2018-05-19T04:03:08.807Z,11.20
2018-05-19T04:05:36.292Z,11.20
2018-05-19T04:08:04.529Z,11.00
2018-05-19T04:10:32.023Z,11.00
2018-05-19T04:12:59.528Z,11.10
2018-05-19T04:15:27.020Z,11.10
2018-05-19T04:17:54.483Z,11.20
2018-05-19T04:20:21.959Z,11.10
2018-05-19T04:22:50.213Z,11.10
2018-05-19T04:25:17.681Z,11.10
2018-05-19T04:27:45.160Z,11.20
2018-05-19T04:30:13.401Z,11.10
2018-05-19T04:32:41.071Z,11.10
2018-05-19T04:35:09.305Z,11.10
2018-05-19T04:37:36.795Z,11.10
2018-05-19T04:40:04.284Z,11.10
2018-05-19T04:42:32.533Z,11.30
2018-05-19T04:45:00.417Z,11.30
2018-05-19T04:47:28.651Z,11.30
2018-05-19T04:49:56.128Z,11.30
2018-05-19T04:52:23.608Z,11.20
2018-05-19T04:54:51.854Z,11.30
2018-05-19T04:57:19.355Z,11.30
2018-05-19T04:59:47.612Z,11.30
2018-05-19T05:02:16.608Z,11.20
2018-05-19T05:04:44.860Z,11.30
2018-05-19T05:07:12.337Z,11.30
2018-05-19T05:09:41.355Z,11.40
2018-05-19T05:12:08.844Z,11.40
2018-05-19T05:14:36.319Z,11.50
2018-05-19T05:17:04.236Z,11.50
2018-05-19T05:19:32.546Z,11.60
2018-05-19T05:22:00.009Z,11.50
2018-05-19T05:24:27.471Z,11.60
2018-05-19T05:26:54.986Z,11.70
2018-05-19T05:29:23.256Z,11.60
2018-05-19T05:31:51.494Z,11.60
2018-05-19T05:34:18.985Z,11.60
2018-05-19T05:36:47.233Z,11.80
2018-05-19T05:39:14.864Z,11.80
2018-05-19T05:41:42.332Z,11.90
2018-05-19T05:44:09.804Z,11.90
2018-05-19T05:46:37.296Z,11.90
2018-05-19T05:49:05.744Z,12.00
2018-05-19T05:51:33.224Z,12.00
2018-05-19T05:54:01.464Z,11.90
2018-05-19T05:56:28.955Z,11.90
2018-05-19T05:58:57.199Z,12.00
2018-05-19T06:01:24.681Z,12.00
2018-05-19T06:03:52.184Z,12.10
2018-05-19T06:06:19.693Z,12.10
2018-05-19T06:08:47.159Z,12.20
2018-05-19T06:11:14.621Z,12.30
2018-05-19T06:13:43.093Z,12.40
2018-05-19T06:16:10.596Z,12.40
2018-05-19T06:18:38.318Z,12.50
2018-05-19T06:21:06.878Z,12.70
2018-05-19T06:23:34.368Z,12.70
2018-05-19T06:26:02.640Z,12.70
2018-05-19T06:28:30.105Z,12.60
2018-05-19T06:30:58.351Z,12.70
2018-05-19T06:33:25.836Z,12.60
2018-05-19T06:35:54.091Z,12.60
2018-05-19T06:38:22.333Z,12.50
2018-05-19T06:40:49.838Z,12.50
2018-05-19T06:43:18.068Z,12.70
2018-05-19T06:45:45.559Z,12.70
2018-05-19T06:48:13.158Z,12.80
2018-05-19T06:50:40.551Z,12.90
2018-05-19T06:53:08.035Z,13.00
2018-05-19T06:55:37.027Z,13.00
2018-05-19T06:58:04.490Z,13.00
2018-05-19T07:00:32.760Z,13.10
2018-05-19T07:03:01.019Z,13.20
2018-05-19T07:05:28.497Z,13.10
2018-05-19T07:07:56.767Z,13.50
2018-05-19T07:10:24.268Z,13.40
2018-05-19T07:12:51.746Z,13.60
2018-05-19T07:15:19.218Z,13.60
2018-05-19T07:17:46.704Z,13.60
2018-05-19T07:20:14.170Z,13.60
2018-05-19T07:22:41.699Z,13.50
2018-05-19T07:25:09.177Z,13.50
2018-05-19T07:27:37.496Z,13.70
2018-05-19T07:30:05.685Z,13.80
2018-05-19T07:32:33.172Z,13.80
2018-05-19T07:35:01.430Z,14.10
2018-05-19T07:37:28.905Z,14.10
2018-05-19T07:39:57.148Z,14.10
2018-05-19T07:42:24.616Z,14.00
2018-05-19T07:44:52.119Z,14.00
2018-05-19T07:47:20.365Z,14.10
2018-05-19T07:49:48.678Z,14.10
2018-05-19T07:52:16.903Z,14.30
2018-05-19T07:54:44.387Z,14.30
2018-05-19T07:57:12.624Z,14.40
2018-05-19T07:59:40.314Z,14.40
2018-05-19T08:02:08.657Z,14.10
2018-05-19T08:04:36.148Z,14.10
2018-05-19T08:07:03.633Z,14.40
2018-05-19T08:09:34.972Z,14.90
2018-05-19T08:12:03.216Z,14.90
2018-05-19T08:14:30.687Z,14.90
2018-05-19T08:16:58.199Z,14.90
2018-05-19T08:19:25.820Z,14.90
2018-05-19T08:21:54.079Z,15.00
2018-05-19T08:24:21.577Z,15.00
2018-05-19T08:26:49.080Z,15.10
2018-05-19T08:29:16.597Z,15.10
2018-05-19T08:31:44.092Z,15.10
2018-05-19T08:34:11.655Z,15.30
2018-05-19T08:36:39.156Z,15.30
2018-05-19T08:39:07.625Z,15.60
2018-05-19T08:41:35.879Z,15.80
2018-05-19T08:44:03.358Z,15.70
2018-05-19T08:46:31.609Z,15.60
2018-05-19T08:48:59.090Z,15.60
2018-05-19T08:51:27.344Z,15.40
2018-05-19T08:53:55.628Z,15.40
2018-05-19T08:56:23.113Z,15.40
2018-05-19T08:58:51.473Z,15.10
2018-05-19T09:01:18.961Z,15.10
2018-05-19T09:03:46.439Z,15.30
2018-05-19T09:06:13.950Z,15.30
2018-05-19T09:08:42.222Z,15.40
2018-05-19T09:11:09.798Z,15.40
2018-05-19T09:13:38.066Z,15.40
2018-05-19T09:16:05.815Z,15.40
2018-05-19T09:18:34.095Z,15.40
2018-05-19T09:21:01.616Z,15.40
2018-05-19T09:23:29.326Z,15.30
2018-05-19T09:25:58.016Z,15.30
2018-05-19T09:28:26.987Z,15.40
2018-05-19T09:30:54.546Z,15.30
2018-05-19T09:33:22.064Z,15.60
2018-05-19T09:35:49.629Z,15.80
2018-05-19T09:38:17.136Z,15.70
2018-05-19T09:40:45.432Z,15.60
2018-05-19T09:43:13.124Z,15.60
2018-05-19T09:45:41.836Z,16.10
2018-05-19T09:48:10.113Z,16.30
2018-05-19T09:50:37.604Z,16.30
2018-05-19T09:53:05.146Z,16.60
2018-05-19T09:55:33.624Z,16.80
2018-05-19T09:58:01.891Z,17.00
2018-05-19T10:00:30.180Z,17.10
2018-05-19T10:02:57.727Z,17.10
2018-05-19T10:05:25.995Z,16.60
2018-05-19T10:07:53.560Z,16.60
2018-05-19T10:10:21.819Z,17.00
2018-05-19T10:12:49.305Z,17.00
2018-05-19T10:15:17.857Z,17.60
2018-05-19T10:17:45.405Z,17.60
2018-05-19T10:20:12.955Z,17.60
2018-05-19T10:22:40.470Z,17.50
2018-05-19T10:25:07.896Z,17.50
2018-05-19T10:27:35.384Z,17.30
2018-05-19T10:30:03.965Z,17.80
2018-05-19T10:32:32.226Z,17.90
2018-05-19T10:35:00.460Z,17.90
2018-05-19T10:37:27.956Z,17.80
2018-05-19T10:39:55.457Z,17.90
2018-05-19T10:42:23.005Z,17.90
2018-05-19T10:44:51.250Z,17.90
2018-05-19T10:47:19.369Z,17.80
2018-05-19T10:49:46.876Z,17.90
2018-05-19T10:52:14.385Z,17.70
2018-05-19T10:54:42.014Z,17.70
2018-05-19T10:57:10.278Z,17.10
2018-05-19T10:59:37.780Z,17.10
2018-05-19T11:02:05.570Z,17.10
2018-05-19T11:04:33.132Z,17.20
2018-05-19T11:07:00.634Z,17.30
2018-05-19T11:09:29.069Z,17.40
2018-05-19T11:11:56.602Z,17.40
2018-05-19T11:14:24.943Z,17.80
2018-05-19T11:16:53.338Z,18.00
2018-05-19T11:19:21.436Z,18.00
2018-05-19T11:21:49.413Z,18.00
2018-05-19T11:24:17.102Z,18.40
2018-05-19T11:26:44.748Z,18.50
2018-05-19T11:29:12.360Z,18.60
2018-05-19T11:31:40.685Z,18.70
2018-05-19T11:34:08.242Z,18.70
2018-05-19T11:36:35.985Z,18.70
2018-05-19T11:39:03.771Z,18.50
2018-05-19T11:41:31.318Z,18.60
2018-05-19T11:43:58.863Z,18.60
2018-05-19T11:46:26.426Z,18.80
2018-05-19T11:48:53.896Z,18.90
2018-05-19T11:51:21.584Z,19.00
2018-05-19T11:53:49.921Z,19.20
2018-05-19T11:56:17.799Z,19.20
2018-05-19T11:58:45.450Z,19.20
2018-05-19T12:01:13.116Z,19.20
2018-05-19T12:03:40.889Z,19.40
2018-05-19T12:06:08.537Z,19.50
2018-05-19T12:08:36.179Z,19.10
2018-05-19T12:11:03.865Z,18.70
2018-05-19T12:13:31.477Z,18.50
2018-05-19T12:15:58.964Z,18.30
2018-05-19T12:18:27.226Z,18.70
2018-05-19T12:20:55.742Z,19.10
2018-05-19T12:23:23.313Z,19.00
2018-05-19T12:25:50.992Z,19.30
2018-05-19T12:28:18.475Z,19.80
2018-05-19T12:30:46.001Z,20.10
2018-05-19T12:33:13.734Z,20.50
2018-05-19T12:35:41.196Z,20.50
2018-05-19T12:38:08.732Z,20.90
2018-05-19T12:40:36.456Z,21.00
2018-05-19T12:43:04.868Z,21.30
2018-05-19T12:45:33.301Z,21.10
2018-05-19T12:48:00.955Z,21.00
2018-05-19T12:50:28.444Z,20.70
2018-05-19T12:52:56.118Z,20.60
2018-05-19T12:55:24.426Z,20.90
2018-05-19T12:57:52.043Z,20.80
2018-05-19T13:00:19.568Z,20.80
2018-05-19T13:02:47.075Z,20.90
2018-05-19T13:05:15.429Z,21.00
2018-05-19T13:07:42.901Z,21.00
2018-05-19T13:10:10.478Z,21.10
2018-05-19T13:12:38.802Z,21.30
2018-05-19T13:15:07.002Z,21.40
2018-05-19T13:17:34.657Z,21.40
2018-05-19T13:20:02.944Z,21.70
2018-05-19T13:22:31.210Z,21.80
2018-05-19T13:24:58.745Z,21.80
2018-05-19T13:27:26.242Z,21.70
2018-05-19T13:29:53.752Z,21.70
2018-05-19T13:32:21.220Z,21.80
2018-05-19T13:34:48.713Z,21.90
2018-05-19T13:37:16.245Z,21.80
2018-05-19T13:39:43.821Z,21.60
2018-05-19T13:42:11.319Z,21.80
2018-05-19T13:44:39.003Z,21.80
2018-05-19T13:47:06.678Z,21.70
2018-05-19T13:49:34.168Z,20.70
2018-05-19T13:52:01.750Z,20.50
2018-05-19T13:54:29.278Z,20.50
2018-05-19T13:56:56.834Z,20.70
2018-05-19T13:59:24.299Z,21.10
2018-05-19T14:01:57.777Z,21.40
2018-05-19T14:04:25.391Z,21.60
2018-05-19T14:06:52.880Z,21.80
2018-05-19T14:09:20.376Z,21.90
2018-05-19T14:11:48.108Z,21.80
2018-05-19T14:14:15.640Z,22.00
2018-05-19T14:16:46.825Z,21.90
2018-05-19T14:19:14.465Z,21.70
2018-05-19T14:21:41.955Z,21.80
2018-05-19T14:24:09.642Z,21.80
2018-05-19T14:26:37.887Z,21.80
2018-05-19T14:29:05.572Z,21.80
2018-05-19T14:31:34.197Z,21.50
2018-05-19T14:34:01.943Z,21.40
2018-05-19T14:36:30.883Z,21.40
2018-05-19T14:38:58.394Z,21.60
2018-05-19T14:41:25.919Z,21.60
2018-05-19T14:43:53.463Z,21.50
2018-05-19T14:46:21.017Z,21.40
2018-05-19T14:48:49.197Z,21.30
2018-05-19T14:51:16.679Z,21.30
2018-05-19T14:53:44.191Z,21.10
2018-05-19T14:56:11.679Z,21.30
2018-05-19T14:58:39.182Z,21.20
2018-05-19T15:01:06.649Z,20.70
2018-05-19T15:03:34.247Z,20.60
2018-05-19T15:06:01.730Z,20.80
2018-05-19T15:08:30.708Z,20.50
2018-05-19T15:10:59.053Z,20.50
2018-05-19T15:13:26.556Z,20.50
2018-05-19T15:15:54.823Z,20.60
2018-05-19T15:18:23.098Z,20.60
2018-05-19T15:20:51.374Z,20.50
2018-05-19T15:23:19.813Z,20.40
2018-05-19T15:25:47.226Z,20.40
2018-05-19T15:28:15.473Z,20.10
2018-05-19T15:30:42.968Z,20.10
2018-05-19T15:33:10.562Z,20.20
2018-05-19T15:35:38.773Z,20.10
2018-05-19T15:38:07.037Z,20.10
2018-05-19T15:40:34.768Z,20.10
2018-05-19T15:43:02.263Z,20.20
2018-05-19T15:45:29.748Z,20.10
2018-05-19T15:47:57.309Z,20.10
2018-05-19T15:50:24.795Z,20.00
2018-05-19T15:52:52.475Z,19.70
2018-05-19T15:55:19.983Z,19.70
2018-05-19T15:57:47.611Z,19.80
2018-05-19T16:00:15.104Z,19.80
2018-05-19T16:02:43.527Z,19.80
2018-05-19T16:05:11.119Z,19.80
2018-05-19T16:07:38.587Z,19.90
2018-05-19T16:10:06.992Z,19.70
2018-05-19T16:12:34.758Z,19.70
2018-05-19T16:15:02.283Z,19.70
2018-05-19T16:17:30.874Z,19.70
2018-05-19T16:19:59.152Z,19.70
2018-05-19T16:22:27.528Z,19.60
2018-05-19T16:24:55.789Z,19.60
2018-05-19T16:27:23.434Z,19.60
2018-05-19T16:29:51.220Z,19.50
2018-05-19T16:32:19.490Z,19.60
2018-05-19T16:34:47.035Z,19.60
2018-05-19T16:37:14.658Z,19.60
2018-05-19T16:39:42.144Z,19.70
2018-05-19T16:42:09.869Z,19.40
2018-05-19T16:44:38.318Z,19.30
2018-05-19T16:47:06.602Z,19.20
2018-05-19T16:49:35.008Z,19.20
2018-05-19T16:52:02.753Z,19.20
2018-05-19T16:54:31.093Z,19.30
2018-05-19T16:56:58.546Z,19.20
2018-05-19T16:59:26.064Z,19.30
2018-05-19T17:01:53.777Z,19.20
2018-05-19T17:04:21.262Z,19.30
2018-05-19T17:06:49.560Z,19.10
2018-05-19T17:09:17.262Z,19.10
2018-05-19T17:11:44.779Z,19.10
2018-05-19T17:14:12.602Z,19.20
2018-05-19T17:16:40.928Z,19.10
2018-05-19T17:19:08.486Z,19.00
2018-05-19T17:21:36.015Z,19.00
2018-05-19T17:24:03.564Z,19.00
2018-05-19T17:26:31.095Z,19.10
2018-05-19T17:28:58.641Z,19.00
2018-05-19T17:31:26.138Z,18.90
2018-05-19T17:33:53.906Z,19.00
2018-05-19T17:36:22.231Z,19.00
2018-05-19T17:38:49.895Z,18.90
2018-05-19T17:41:17.664Z,18.90
2018-05-19T17:43:45.433Z,18.90
2018-05-19T17:46:18.336Z,18.90
2018-05-19T17:48:52.066Z,18.90
2018-05-19T17:51:21.665Z,18.70
2018-05-19T17:53:55.806Z,18.70
2018-05-19T17:56:30.832Z,18.70
2018-05-19T17:59:01.204Z,18.60
2018-05-19T18:01:28.885Z,18.50
2018-05-19T18:04:01.801Z,18.40
2018-05-19T18:19:30.198Z,18.40
2018-05-19T18:21:57.671Z,18.10
2018-05-19T18:24:25.213Z,18.10
2018-05-19T18:26:52.758Z,18.10
2018-05-19T18:29:20.338Z,18.10
2018-05-19T18:31:47.760Z,18.00
2018-05-19T18:34:15.260Z,17.90
2018-05-19T18:36:43.051Z,17.90
2018-05-19T18:39:10.587Z,17.90
2018-05-19T18:41:38.091Z,17.80
2018-05-19T18:44:05.576Z,17.80
2018-05-19T18:46:33.104Z,17.80
2018-05-19T18:49:01.352Z,17.70
2018-05-19T18:51:34.702Z,17.70
2018-05-19T18:54:02.204Z,17.60
2018-05-19T18:56:29.731Z,17.60
2018-05-19T18:59:04.484Z,17.60
2018-05-19T19:01:32.094Z,17.50
2018-05-19T19:03:59.714Z,17.30
2018-05-19T19:06:27.229Z,17.20
2018-05-19T19:08:56.181Z,17.20
2018-05-19T19:11:23.886Z,17.20
2018-05-19T19:13:51.396Z,17.10
2018-05-19T19:16:19.675Z,17.10
2018-05-19T19:18:47.244Z,17.10
2018-05-19T19:21:15.473Z,17.10
2018-05-19T19:23:43.285Z,17.00
2018-05-19T19:26:11.546Z,16.90
2018-05-19T19:28:39.045Z,16.90
2018-05-19T19:31:06.532Z,16.90
2018-05-19T19:33:34.051Z,16.90
2018-05-19T19:36:01.597Z,16.70
2018-05-19T19:38:29.869Z,16.70
2018-05-19T19:40:58.099Z,16.60
2018-05-19T19:43:25.609Z,16.60
2018-05-19T19:45:53.963Z,16.40
2018-05-19T19:48:21.439Z,16.40
2018-05-19T19:50:48.904Z,16.40
2018-05-19T19:53:16.388Z,16.40
2018-05-19T19:55:44.314Z,16.30
2018-05-19T19:58:12.555Z,16.20
2018-05-19T20:00:40.027Z,16.30
2018-05-19T20:03:07.491Z,16.10
2018-05-19T20:05:35.751Z,16.10
2018-05-19T20:08:04.738Z,16.10
2018-05-19T20:10:32.991Z,16.00
2018-05-19T20:13:00.459Z,16.00
2018-05-19T20:15:27.943Z,16.00
2018-05-19T20:17:55.440Z,15.80
2018-05-19T20:20:22.945Z,15.90
2018-05-19T20:22:50.409Z,15.90
2018-05-19T20:25:17.905Z,15.80
2018-05-19T20:27:45.982Z,15.70
2018-05-19T20:30:13.483Z,15.70
2018-05-19T20:32:40.952Z,15.70
2018-05-19T20:35:08.424Z,15.70
2018-05-19T20:37:36.672Z,15.70
2018-05-19T20:40:04.144Z,15.60
2018-05-19T20:42:31.706Z,15.70
2018-05-19T20:44:59.109Z,15.70
2018-05-19T20:47:26.605Z,15.70
2018-05-19T20:49:54.069Z,15.60
2018-05-19T20:52:21.543Z,15.60
2018-05-19T20:54:49.823Z,15.50
2018-05-19T20:57:17.301Z,15.40
2018-05-19T20:59:44.773Z,15.40
2018-05-19T21:02:12.248Z,15.40
2018-05-19T21:04:39.712Z,15.40
2018-05-19T21:07:07.216Z,15.50
2018-05-19T21:09:35.684Z,15.30
2018-05-19T21:12:03.150Z,15.30
2018-05-19T21:14:31.388Z,15.30
2018-05-19T21:16:58.861Z,15.30
2018-05-19T21:19:26.340Z,15.30
2018-05-19T21:21:56.824Z,15.40
2018-05-19T21:24:24.324Z,15.40
2018-05-19T21:26:52.572Z,15.40
2018-05-19T21:29:20.104Z,15.40
2018-05-19T21:31:47.625Z,15.30
2018-05-19T21:34:15.887Z,15.20
2018-05-19T21:36:44.140Z,15.20
2018-05-19T21:39:11.628Z,15.20
2018-05-19T21:41:39.890Z,15.20
2018-05-19T21:44:07.394Z,15.10
2018-05-19T21:46:34.872Z,15.10
2018-05-19T21:49:02.366Z,15.20
2018-05-19T21:51:31.488Z,15.10
2018-05-19T21:53:59.000Z,15.10
2018-05-19T21:56:26.501Z,15.10
2018-05-19T21:58:54.748Z,14.90
2018-05-19T22:01:22.234Z,14.90
2018-05-19T22:03:50.501Z,15.10
2018-05-19T22:06:18.819Z,15.10
2018-05-19T22:08:46.303Z,15.10
2018-05-19T22:11:13.784Z,15.00
2018-05-19T22:13:42.056Z,14.90
2018-05-19T22:16:10.407Z,14.90
2018-05-19T22:18:37.923Z,14.90
2018-05-19T22:21:05.492Z,14.80
2018-05-19T22:23:32.978Z,14.80
2018-05-19T22:26:00.481Z,14.80
2018-05-19T22:28:28.745Z,14.90
2018-05-19T22:30:57.025Z,14.70
2018-05-19T22:33:25.292Z,14.80
2018-05-19T22:35:52.778Z,14.80
2018-05-19T22:38:20.385Z,14.90
2018-05-19T22:40:49.398Z,14.80
2018-05-19T22:43:16.985Z,14.80
2018-05-19T22:45:44.468Z,14.80
2018-05-19T22:48:12.084Z,14.70
2018-05-19T22:50:40.354Z,14.70
2018-05-19T22:53:07.884Z,14.60
2018-05-19T22:55:35.594Z,14.70
2018-05-19T22:58:03.874Z,14.70
2018-05-19T23:00:32.112Z,14.60
2018-05-19T23:02:59.608Z,14.60
2018-05-19T23:05:27.863Z,14.60
2018-05-19T23:07:56.149Z,14.60
2018-05-19T23:10:23.654Z,14.60
2018-05-19T23:12:51.136Z,14.40
2018-05-19T23:15:18.638Z,14.40
2018-05-19T23:17:46.130Z,14.40
2018-05-19T23:20:13.647Z,14.30
2018-05-19T23:22:44.859Z,14.30
2018-05-19T23:25:12.338Z,14.30
2018-05-19T23:27:40.579Z,14.20
2018-05-19T23:30:08.064Z,14.20
2018-05-19T23:32:36.325Z,14.10
2018-05-19T23:35:05.311Z,14.00
2018-05-19T23:37:34.304Z,14.00
2018-05-19T23:40:02.533Z,14.00
2018-05-19T23:42:30.099Z,14.00
2018-05-19T23:44:58.279Z,14.10
2018-05-19T23:47:25.771Z,14.00
2018-05-19T23:49:53.240Z,14.00
2018-05-19T23:52:20.721Z,13.90
2018-05-19T23:54:48.960Z,14.00
2018-05-19T23:57:17.961Z,14.00
2018-05-19T23:59:46.935Z,13.80
